Airport View

Enter AWOS ICAO identifier for current METAR.

ex. KFNL

KHQM 212253Z AUTO 28010KT 9SM OVC035 18/16 A3007 RMK AO2 SLP185 T01780156

21 Sep 2019 23:25

Frequency: 135.775

Phone: 360-538-7021

Other Area AWOS: KSHN - KOLM - KCLS - KAST

TAF KHQM 211730Z 2118/2218 VRB03KT 4SM BR FEW004 SCT010 OVC020 FM211900 19005KT 6SM BR SCT015 BKN020 OVC030 FM212000 22006KT P6SM BKN025 FM212300 24008KT P6SM OVC035 FM220400 22005KT P6SM OVC020 FM220500 19004KT P6SM OVC007 FM220900 16007KT 4SM -RA BR OVC005